Sioux Falls, SD

9:45 AM CDT on July 24, 2017 (GMT -0500)
229 and rice street Sioux Falls SD | | Change Station

Elev 1397 ft 43.56 °N, 96.70 °W | Updated 6 seconds ago

Scattered Clouds
Scattered Clouds
73.4 °F
Feels Like 75 °F
N
3.8
Wind Variable Wind from WNW
Gusts 7.4 mph

Today
High -- | Low -- °F
--% Chance of Precip.
Yesterday
High -- | Low -- °F
Precip. -- in
Pressure 30.02 in
Visibility 10.0 miles
Clouds Scattered Clouds 25000 ft
Heat Index 75 °F
Dew Point 64 °F
Humidity 71%
Rainfall 0.00 in
Snow Depth Not available.
6:08 AM 8:57 PM
New Moon, 2% visible
METAR KFSD 241356Z 18008KT 10SM SCT250 21/17 A3004 RMK AO2 SLP166 T02110167
Pressure 30.02 in
Visibility 10.0 miles
Clouds Scattered Clouds 25000 ft
Heat Index 75 °F
Dew Point 64 °F
Humidity 71%
Rainfall 0.00 in
Snow Depth Not available.
6:08 AM 8:57 PM
New Moon, 2% visible
METAR KFSD 241356Z 18008KT 10SM SCT250 21/17 A3004 RMK AO2 SLP166 T02110167

Get Severe Weather Alerts

Thanks for signing up!

Be on the lookout for a verification email in your inbox.

You'll start receiving the daily forecast at 6 AM.

×

10-Day Weather Forecast

Almanac

Astronomy

Jul. 24, 2017 Rise Set
Actual Time
Civil Twilight
Nautical Twilight
Astronomical Twilight
Moon
Length of Visible Light
Length of Day
Tomorrow will be .
, % of the Moon is Illuminated

Today's Extremes

State Highs State Lows

Community

WunderPhotos

Category 6

Welcome to Category 6. This is the collective home for Weather Underground's featured writeups by Dr. Jeff Masters (right), Bob Henson (left), Chris Burt, and other regular contributors.

Nearby

Air Quality

  Air Quality AQ Index Pollutant
Not available.

Snow Depth

Station Depth Elevation

Earthquake Activity

City Distance Mag. Time & Date
Minimum magnitude displayed is 2.5.

Coastal Water Temperatures

Place Temperature

Stations

Nearby Weather Stations

Station Location Temp. Windchill Dew Point Humidity Wind Precip. Elev Updated Type
                   

Watches & Warnings

There are currently no watches in effect.